Ross, Texas
Current Conditions -  °F | °C
As of 9:51 PM on Wednesday 26 Nov 2014 (Local Time) from KACT Reporting Station
Clear Clear  
Wind Chill: 43°   Ceiling: Unl
Heat Index: 46°   Visibility: 10mi
Dew Point: 37°   Wind: 6mph
Humidity: 71%   Direction: 350°N
Pressure: 30.35"   Gusts: NA
Location:  31.72°N, 97.12°W
Report Text: KACT 270351Z 35005KT 10SM CLR 08/03 A3035 RMK AO2 SLP275 T00780028
Loading
Personal Weather Stations






























Interactive Weather Map New forecast layout! Learn more

10-Day Weather Forecast

Advertisements
Track Severe Weather on mobile